createdAt,value
2023-01-08T00:01:40.875Z,18.55
2023-01-08T00:05:44.670Z,23.10
2023-01-08T00:09:53.191Z,19.27
2023-01-08T00:13:57.777Z,24.20
2023-01-08T00:18:00.879Z,23.77
2023-01-08T00:22:04.143Z,26.02
2023-01-08T00:26:09.883Z,22.80
2023-01-08T00:30:13.982Z,22.73
2023-01-08T00:34:16.752Z,25.10
2023-01-08T00:38:21.584Z,25.10
2023-01-08T00:42:25.246Z,24.58
2023-01-08T00:46:28.553Z,23.58
2023-01-08T00:50:32.050Z,20.80
2023-01-08T00:54:35.358Z,24.08
2023-01-08T00:58:38.487Z,28.75
2023-01-08T01:02:41.321Z,27.40
2023-01-08T01:06:45.887Z,30.23
2023-01-08T01:10:48.001Z,29.63
2023-01-08T01:14:51.382Z,30.02
2023-01-08T01:18:55.703Z,29.97
2023-01-08T01:22:59.500Z,26.23
2023-01-08T01:27:02.571Z,32.83
2023-01-08T01:31:07.083Z,29.98
2023-01-08T01:35:11.207Z,34.03
2023-01-08T01:39:13.406Z,33.35
2023-01-08T01:43:15.835Z,34.15
2023-01-08T01:47:27.428Z,37.78
2023-01-08T01:51:34.700Z,36.67
2023-01-08T01:55:41.019Z,32.22
2023-01-08T01:59:47.325Z,33.25
2023-01-08T02:03:49.822Z,32.42
2023-01-08T02:08:12.803Z,30.02
2023-01-08T02:12:41.412Z,26.58
2023-01-08T02:17:01.368Z,25.58
2023-01-08T02:21:09.319Z,20.15
2023-01-08T02:25:23.605Z,24.88
2023-01-08T02:29:29.292Z,18.10
2023-01-08T02:33:32.967Z,20.70
2023-01-08T02:37:37.068Z,21.23
2023-01-08T02:42:04.582Z,28.92
2023-01-08T02:46:09.984Z,22.60
2023-01-08T02:50:15.831Z,25.42
2023-01-08T02:54:23.126Z,25.30
2023-01-08T02:58:30.538Z,25.73
2023-01-08T03:02:36.459Z,23.65
2023-01-08T03:06:46.030Z,26.63
2023-01-08T03:11:08.093Z,22.83
2023-01-08T03:15:15.465Z,23.98
2023-01-08T03:19:28.650Z,23.73
2023-01-08T03:23:37.755Z,23.48
2023-01-08T03:27:49.699Z,23.55
2023-01-08T03:31:59.193Z,16.33
2023-01-08T03:36:05.537Z,15.32
2023-01-08T03:40:17.930Z,16.30
2023-01-08T03:44:20.932Z,13.82
2023-01-08T03:48:26.375Z,15.80
2023-01-08T03:52:31.363Z,15.50
2023-01-08T03:56:33.516Z,26.23
2023-01-08T04:00:35.816Z,31.77
2023-01-08T04:04:38.933Z,32.30
2023-01-08T04:08:41.280Z,32.03
2023-01-08T04:12:43.819Z,31.35
2023-01-08T04:16:46.099Z,27.15
2023-01-08T04:20:48.870Z,28.25
2023-01-08T04:24:51.104Z,27.98
2023-01-08T04:28:53.821Z,26.13
2023-01-08T04:32:56.808Z,30.30
2023-01-08T04:36:59.279Z,29.83
2023-01-08T04:41:02.784Z,30.38
2023-01-08T04:45:07.794Z,24.92
2023-01-08T04:49:11.502Z,19.88
2023-01-08T04:53:13.782Z,13.73
2023-01-08T04:57:16.034Z,16.15
2023-01-08T05:01:24.854Z,13.38
2023-01-08T05:05:27.718Z,14.45
2023-01-08T05:09:30.761Z,14.68
2023-01-08T05:13:33.054Z,14.30
2023-01-08T05:17:35.317Z,15.18
2023-01-08T05:21:37.886Z,22.20
2023-01-08T05:25:40.480Z,16.67
2023-01-08T05:29:42.728Z,24.90
2023-01-08T05:33:45.355Z,26.60
2023-01-08T05:37:47.654Z,25.58
2023-01-08T05:41:50.939Z,25.75
2023-01-08T05:45:53.186Z,21.38
2023-01-08T05:49:55.842Z,23.80
2023-01-08T05:53:58.294Z,21.42
2023-01-08T05:58:05.955Z,23.65
2023-01-08T06:02:09.930Z,24.05
2023-01-08T06:06:13.492Z,22.25
2023-01-08T06:10:16.045Z,22.20
2023-01-08T06:19:02.919Z,23.43
2023-01-08T06:23:05.097Z,22.00
2023-01-08T06:27:07.405Z,26.13
2023-01-08T06:31:09.683Z,19.02
2023-01-08T06:35:12.044Z,23.15
2023-01-08T06:39:14.990Z,18.98
2023-01-08T06:43:18.094Z,23.38
2023-01-08T06:47:20.296Z,17.25
2023-01-08T06:51:22.545Z,19.85
2023-01-08T06:55:26.231Z,21.25
2023-01-08T06:59:28.362Z,26.50
2023-01-08T07:03:30.613Z,19.92
2023-01-08T07:07:33.980Z,20.75
2023-01-08T07:11:36.219Z,23.60
2023-01-08T07:15:43.072Z,23.38
2023-01-08T07:19:45.276Z,22.48
2023-01-08T07:23:49.391Z,22.80
2023-01-08T07:27:51.568Z,21.85
2023-01-08T07:31:53.862Z,18.98
2023-01-08T07:36:03.415Z,18.85
2023-01-08T07:40:09.135Z,23.20
2023-01-08T07:44:12.111Z,21.47
2023-01-08T07:48:18.174Z,21.23
2023-01-08T07:52:20.315Z,22.83
2023-01-08T07:56:23.781Z,27.33
2023-01-08T08:00:26.672Z,29.88
2023-01-08T08:04:28.869Z,30.63
2023-01-08T08:08:31.311Z,27.85
2023-01-08T08:12:33.538Z,24.23
2023-01-08T08:16:35.695Z,26.90
2023-01-08T08:20:38.464Z,26.08
2023-01-08T08:24:41.804Z,27.55
2023-01-08T08:28:44.722Z,33.65
2023-01-08T08:32:46.927Z,25.50
2023-01-08T08:36:49.969Z,25.20
2023-01-08T08:40:52.651Z,23.50
2023-01-08T08:44:54.890Z,22.17
2023-01-08T08:48:57.242Z,26.25
2023-01-08T08:53:03.307Z,27.33
2023-01-08T08:57:05.652Z,22.73
2023-01-08T09:01:08.505Z,22.45
2023-01-08T09:05:11.736Z,23.58
2023-01-08T09:09:15.587Z,21.73
2023-01-08T09:13:17.842Z,20.70
2023-01-08T09:17:21.532Z,20.15
2023-01-08T09:21:23.690Z,14.87
2023-01-08T09:25:25.899Z,16.15
2023-01-08T09:29:28.073Z,17.88
2023-01-08T09:33:31.379Z,15.48
2023-01-08T09:37:33.762Z,18.27
2023-01-08T09:41:40.216Z,25.58
2023-01-08T09:45:45.905Z,15.40
2023-01-08T09:49:49.806Z,14.40
2023-01-08T09:53:56.442Z,15.15
2023-01-08T09:58:03.303Z,13.30
2023-01-08T10:02:18.880Z,10.60
2023-01-08T10:06:26.752Z,10.65
2023-01-08T10:10:34.771Z,9.05
2023-01-08T10:14:40.997Z,9.05
2023-01-08T10:18:44.155Z,11.40
2023-01-08T10:22:50.736Z,8.77
2023-01-08T10:26:54.482Z,8.25
2023-01-08T10:31:06.023Z,6.93
2023-01-08T10:35:17.881Z,8.43
2023-01-08T10:39:25.633Z,7.38
2023-01-08T10:43:32.808Z,6.75
2023-01-08T10:47:36.685Z,5.32
2023-01-08T10:51:50.392Z,6.15
2023-01-08T10:56:06.436Z,7.77
2023-01-08T11:00:23.564Z,4.05
2023-01-08T11:04:33.961Z,2.90
2023-01-08T11:08:36.611Z,4.18
2023-01-08T11:12:41.230Z,3.40
2023-01-08T11:16:43.792Z,4.00
2023-01-08T11:20:48.410Z,6.57
2023-01-08T11:24:54.715Z,5.20
2023-01-08T11:29:14.801Z,5.30
2023-01-08T11:33:23.824Z,4.88
2023-01-08T11:37:34.313Z,3.72
2023-01-08T11:41:36.677Z,4.35
2023-01-08T11:46:02.975Z,3.28
2023-01-08T11:50:33.964Z,3.58
2023-01-08T11:54:57.443Z,4.00
2023-01-08T11:59:14.971Z,5.68
2023-01-08T12:03:47.937Z,2.55
2023-01-08T12:08:13.291Z,3.15
2023-01-08T12:12:26.685Z,3.15
2023-01-08T12:16:56.943Z,4.40
2023-01-08T12:21:33.709Z,2.40
2023-01-08T12:25:39.364Z,4.82
2023-01-08T12:30:06.739Z,2.90
2023-01-08T12:34:34.563Z,2.20
2023-01-08T12:38:44.136Z,3.38
2023-01-08T12:42:59.953Z,3.53
2023-01-08T12:47:08.167Z,2.10
2023-01-08T12:51:26.465Z,3.13
2023-01-08T12:55:57.265Z,2.65
2023-01-08T13:00:19.734Z,3.15
2023-01-08T13:04:30.516Z,2.85
2023-01-08T13:08:38.471Z,3.15
2023-01-08T13:12:41.592Z,3.85
2023-01-08T13:16:47.547Z,3.43
2023-01-08T13:21:01.253Z,2.92
2023-01-08T13:25:15.774Z,2.92
2023-01-08T13:33:47.376Z,2.22
2023-01-08T13:38:13.215Z,4.68
2023-01-08T13:42:25.002Z,4.28
2023-01-08T13:46:28.939Z,3.28
2023-01-08T13:50:39.407Z,7.18
2023-01-08T13:54:43.730Z,6.55
2023-01-08T13:58:52.704Z,4.03
2023-01-08T14:02:55.361Z,10.88
2023-01-08T14:07:27.290Z,7.68
2023-01-08T14:11:38.644Z,5.45
2023-01-08T14:15:41.209Z,11.60
2023-01-08T14:19:44.627Z,7.53
2023-01-08T14:23:48.694Z,6.65
2023-01-08T14:28:00.195Z,5.85
2023-01-08T14:32:05.430Z,6.25
2023-01-08T14:36:08.688Z,8.38
2023-01-08T14:40:21.213Z,10.35
2023-01-08T14:44:36.476Z,3.75
2023-01-08T14:48:46.043Z,3.97
2023-01-08T14:52:50.723Z,6.80
2023-01-08T14:57:01.520Z,9.02
2023-01-08T15:01:22.872Z,8.43
2023-01-08T15:05:32.459Z,6.45
2023-01-08T15:09:40.074Z,5.28
2023-01-08T15:13:46.795Z,3.92
2023-01-08T15:17:49.183Z,5.55
2023-01-08T15:22:00.385Z,4.30
2023-01-08T15:26:04.699Z,1.40
2023-01-08T15:30:28.987Z,2.15
2023-01-08T15:34:36.943Z,2.85
2023-01-08T15:38:43.227Z,3.25
2023-01-08T15:43:10.623Z,2.10
2023-01-08T15:47:12.928Z,13.98
2023-01-08T15:51:18.473Z,3.83
2023-01-08T15:55:25.771Z,5.47
2023-01-08T15:59:34.007Z,3.75
2023-01-08T16:03:36.248Z,2.97
2023-01-08T16:07:42.821Z,2.97
2023-01-08T16:11:46.251Z,1.90
2023-01-08T16:15:49.051Z,2.75
2023-01-08T16:19:51.281Z,3.20
2023-01-08T16:23:53.489Z,2.25
2023-01-08T16:28:07.005Z,3.70
2023-01-08T16:32:09.866Z,3.65
2023-01-08T16:36:12.096Z,5.30
2023-01-08T16:40:15.150Z,4.95
2023-01-08T16:44:22.649Z,4.38
2023-01-08T16:48:25.095Z,6.47
2023-01-08T16:52:27.686Z,6.10
2023-01-08T16:56:31.251Z,6.87
2023-01-08T17:00:40.823Z,7.72
2023-01-08T17:04:44.177Z,3.50
2023-01-08T17:08:48.017Z,2.45
2023-01-08T17:12:51.607Z,5.95
2023-01-08T17:16:54.612Z,6.25
2023-01-08T17:20:56.858Z,4.70
2023-01-08T17:24:59.275Z,3.50
2023-01-08T17:29:01.481Z,2.70
2023-01-08T17:33:03.969Z,6.45
2023-01-08T17:37:06.444Z,2.78
2023-01-08T17:41:37.103Z,7.75
2023-01-08T17:45:40.584Z,7.22
2023-01-08T17:49:43.053Z,2.70
2023-01-08T17:53:47.766Z,3.22
2023-01-08T17:57:53.468Z,5.95
2023-01-08T18:01:56.091Z,3.53
2023-01-08T18:05:59.632Z,5.32
2023-01-08T18:10:03.770Z,4.17
2023-01-08T18:14:07.471Z,6.68
2023-01-08T18:18:10.278Z,5.03
2023-01-08T18:22:13.151Z,5.68
2023-01-08T18:26:17.582Z,3.50
2023-01-08T18:34:23.806Z,3.20
2023-01-08T18:38:25.993Z,3.03
2023-01-08T18:42:28.298Z,4.28
2023-01-08T18:46:31.094Z,2.95
2023-01-08T18:50:34.652Z,2.25
2023-01-08T18:54:39.657Z,2.93
2023-01-08T18:58:42.720Z,9.43
2023-01-08T19:02:44.929Z,2.85
2023-01-08T19:06:47.135Z,3.38
2023-01-08T19:10:50.890Z,1.40
2023-01-08T19:14:54.195Z,4.40
2023-01-08T19:18:57.137Z,2.63
2023-01-08T19:22:59.897Z,3.00
2023-01-08T19:27:02.839Z,2.08
2023-01-08T19:31:05.253Z,6.13
2023-01-08T19:35:08.362Z,5.40
2023-01-08T19:39:12.222Z,2.85
2023-01-08T19:43:43.688Z,2.72
2023-01-08T19:47:48.563Z,2.97
2023-01-08T19:51:52.216Z,4.50
2023-01-08T19:55:55.003Z,3.57
2023-01-08T19:59:58.716Z,4.47
2023-01-08T20:04:01.723Z,4.00
2023-01-08T20:08:06.637Z,5.68
2023-01-08T20:12:11.420Z,3.78
2023-01-08T20:16:17.177Z,3.83
2023-01-08T20:20:19.548Z,3.55
2023-01-08T20:24:22.488Z,2.72
2023-01-08T20:28:25.302Z,2.60
2023-01-08T20:32:31.459Z,3.85
2023-01-08T20:36:36.132Z,4.95
2023-01-08T20:40:40.749Z,6.40
2023-01-08T20:44:45.177Z,2.83
2023-01-08T20:48:50.111Z,1.98
2023-01-08T20:52:52.879Z,2.38
2023-01-08T20:56:57.405Z,2.37
2023-01-08T21:01:10.929Z,4.85
2023-01-08T21:05:13.159Z,5.20
2023-01-08T21:09:16.730Z,3.35
2023-01-08T21:13:19.148Z,1.98
2023-01-08T21:17:21.289Z,2.78
2023-01-08T21:21:33.230Z,2.42
2023-01-08T21:25:35.871Z,2.83
2023-01-08T21:29:38.173Z,1.75
2023-01-08T21:33:41.402Z,4.40
2023-01-08T21:37:44.061Z,5.68
2023-01-08T21:42:07.405Z,1.20
2023-01-08T21:46:12.058Z,2.40
2023-01-08T21:50:14.527Z,4.00
2023-01-08T21:54:18.363Z,2.30
2023-01-08T21:58:22.089Z,3.83
2023-01-08T22:02:25.282Z,3.58
2023-01-08T22:06:30.695Z,2.63
2023-01-08T22:10:35.419Z,1.98
2023-01-08T22:14:39.299Z,1.27
2023-01-08T22:18:45.621Z,2.97
2023-01-08T22:22:50.401Z,1.02
2023-01-08T22:26:54.175Z,2.08
2023-01-08T22:31:03.115Z,2.22
2023-01-08T22:35:06.179Z,2.60
2023-01-08T22:39:14.467Z,1.15
2023-01-08T22:43:28.058Z,1.08
2023-01-08T22:47:39.395Z,1.80
2023-01-08T22:51:44.666Z,1.50
2023-01-08T22:55:57.193Z,0.95
2023-01-08T23:00:03.747Z,0.88
2023-01-08T23:04:16.297Z,1.02
2023-01-08T23:08:26.912Z,1.65
2023-01-08T23:12:35.684Z,0.60
2023-01-08T23:16:46.547Z,0.90
2023-01-08T23:20:49.043Z,1.20
2023-01-08T23:24:57.336Z,0.70
2023-01-08T23:29:13.322Z,1.00
2023-01-08T23:33:20.063Z,1.02
2023-01-08T23:37:27.574Z,1.35
2023-01-08T23:41:36.357Z,1.60
2023-01-08T23:45:41.495Z,0.50
2023-01-08T23:49:50.654Z,4.03
2023-01-08T23:53:56.665Z,0.73
2023-01-08T23:58:04.485Z,1.13
